sensor_id;sensor_type;location;lat;lon;timestamp;temperature;humidity
5358;DHT22;2702;51.014;7.170;2022-07-06T00:02:16;14.90;99.90
5358;DHT22;2702;51.014;7.170;2022-07-06T00:04:42;14.90;99.90
5358;DHT22;2702;51.014;7.170;2022-07-06T00:07:07;14.80;99.90
5358;DHT22;2702;51.014;7.170;2022-07-06T00:09:34;14.80;99.90
5358;DHT22;2702;51.014;7.170;2022-07-06T00:12:00;14.70;99.90
5358;DHT22;2702;51.014;7.170;2022-07-06T00:14:26;14.60;99.90
5358;DHT22;2702;51.014;7.170;2022-07-06T00:16:52;14.60;99.90
5358;DHT22;2702;51.014;7.170;2022-07-06T00:19:18;14.60;99.90
5358;DHT22;2702;51.014;7.170;2022-07-06T00:21:43;14.60;99.90
5358;DHT22;2702;51.014;7.170;2022-07-06T00:24:09;14.50;99.90
5358;DHT22;2702;51.014;7.170;2022-07-06T00:26:35;14.40;99.90
5358;DHT22;2702;51.014;7.170;2022-07-06T00:29:01;14.20;99.90
5358;DHT22;2702;51.014;7.170;2022-07-06T00:31:27;14.10;99.90
5358;DHT22;2702;51.014;7.170;2022-07-06T00:33:53;14.10;99.90
5358;DHT22;2702;51.014;7.170;2022-07-06T00:36:19;14.00;99.90
5358;DHT22;2702;51.014;7.170;2022-07-06T00:38:45;13.90;99.90
5358;DHT22;2702;51.014;7.170;2022-07-06T00:41:13;13.90;99.90
5358;DHT22;2702;51.014;7.170;2022-07-06T00:43:53;13.80;99.90
5358;DHT22;2702;51.014;7.170;2022-07-06T00:46:32;13.80;99.90
5358;DHT22;2702;51.014;7.170;2022-07-06T00:48:58;13.70;99.90
5358;DHT22;2702;51.014;7.170;2022-07-06T00:51:32;13.50;99.90
5358;DHT22;2702;51.014;7.170;2022-07-06T00:54:04;13.60;99.90
5358;DHT22;2702;51.014;7.170;2022-07-06T00:56:31;13.60;99.90
5358;DHT22;2702;51.014;7.170;2022-07-06T00:58:59;13.50;99.90
5358;DHT22;2702;51.014;7.170;2022-07-06T01:01:25;13.40;99.90
5358;DHT22;2702;51.014;7.170;2022-07-06T01:03:51;13.40;99.90
5358;DHT22;2702;51.014;7.170;2022-07-06T01:06:17;13.40;99.90
5358;DHT22;2702;51.014;7.170;2022-07-06T01:08:43;13.30;99.90
5358;DHT22;2702;51.014;7.170;2022-07-06T01:11:09;13.30;99.90
5358;DHT22;2702;51.014;7.170;2022-07-06T01:13:36;13.30;99.90
5358;DHT22;2702;51.014;7.170;2022-07-06T01:16:02;13.20;99.90
5358;DHT22;2702;51.014;7.170;2022-07-06T01:18:28;13.20;99.90
5358;DHT22;2702;51.014;7.170;2022-07-06T01:21:20;13.20;99.90
5358;DHT22;2702;51.014;7.170;2022-07-06T01:23:47;13.20;99.90
5358;DHT22;2702;51.014;7.170;2022-07-06T01:26:15;13.20;99.90
5358;DHT22;2702;51.014;7.170;2022-07-06T01:28:41;13.20;99.90
5358;DHT22;2702;51.014;7.170;2022-07-06T01:31:34;13.30;99.90
5358;DHT22;2702;51.014;7.170;2022-07-06T01:34:00;13.30;99.90
5358;DHT22;2702;51.014;7.170;2022-07-06T01:36:26;13.30;99.90
5358;DHT22;2702;51.014;7.170;2022-07-06T01:38:54;13.40;99.90
5358;DHT22;2702;51.014;7.170;2022-07-06T01:41:21;13.50;99.90
5358;DHT22;2702;51.014;7.170;2022-07-06T01:43:47;13.50;99.90
5358;DHT22;2702;51.014;7.170;2022-07-06T01:46:13;13.50;99.90
5358;DHT22;2702;51.014;7.170;2022-07-06T01:48:39;13.60;99.90
5358;DHT22;2702;51.014;7.170;2022-07-06T01:51:05;13.70;99.90
5358;DHT22;2702;51.014;7.170;2022-07-06T01:53:32;13.60;99.90
5358;DHT22;2702;51.014;7.170;2022-07-06T01:55:58;13.70;99.90
5358;DHT22;2702;51.014;7.170;2022-07-06T01:58:24;13.80;99.90
5358;DHT22;2702;51.014;7.170;2022-07-06T02:00:50;13.80;99.90
5358;DHT22;2702;51.014;7.170;2022-07-06T02:03:15;13.90;99.90
5358;DHT22;2702;51.014;7.170;2022-07-06T02:05:41;13.70;99.90
5358;DHT22;2702;51.014;7.170;2022-07-06T02:08:07;13.70;99.90
5358;DHT22;2702;51.014;7.170;2022-07-06T02:10:33;13.70;99.90
5358;DHT22;2702;51.014;7.170;2022-07-06T02:12:59;13.70;99.90
5358;DHT22;2702;51.014;7.170;2022-07-06T02:15:25;13.60;99.90
5358;DHT22;2702;51.014;7.170;2022-07-06T02:17:51;13.60;99.90
5358;DHT22;2702;51.014;7.170;2022-07-06T02:20:17;13.40;99.90
5358;DHT22;2702;51.014;7.170;2022-07-06T02:22:42;13.40;99.90
5358;DHT22;2702;51.014;7.170;2022-07-06T02:25:08;13.30;99.90
5358;DHT22;2702;51.014;7.170;2022-07-06T02:27:34;13.20;99.90
5358;DHT22;2702;51.014;7.170;2022-07-06T02:30:00;13.00;99.90
5358;DHT22;2702;51.014;7.170;2022-07-06T02:32:26;13.00;99.90
5358;DHT22;2702;51.014;7.170;2022-07-06T02:34:52;13.00;99.90
5358;DHT22;2702;51.014;7.170;2022-07-06T02:37:18;12.80;99.90
5358;DHT22;2702;51.014;7.170;2022-07-06T02:39:44;12.70;99.90
5358;DHT22;2702;51.014;7.170;2022-07-06T02:42:10;12.50;99.90
5358;DHT22;2702;51.014;7.170;2022-07-06T02:44:36;12.40;99.90
5358;DHT22;2702;51.014;7.170;2022-07-06T02:47:01;12.30;99.90
5358;DHT22;2702;51.014;7.170;2022-07-06T02:49:27;12.30;99.90
5358;DHT22;2702;51.014;7.170;2022-07-06T02:51:53;12.20;99.90
5358;DHT22;2702;51.014;7.170;2022-07-06T02:54:19;12.30;99.90
5358;DHT22;2702;51.014;7.170;2022-07-06T02:56:45;12.30;99.90
5358;DHT22;2702;51.014;7.170;2022-07-06T02:59:16;12.30;99.90
5358;DHT22;2702;51.014;7.170;2022-07-06T03:01:42;12.30;99.90
5358;DHT22;2702;51.014;7.170;2022-07-06T03:04:08;12.30;99.90
5358;DHT22;2702;51.014;7.170;2022-07-06T03:06:34;12.30;99.90
5358;DHT22;2702;51.014;7.170;2022-07-06T03:09:00;12.40;99.90
5358;DHT22;2702;51.014;7.170;2022-07-06T03:11:26;12.40;99.90
5358;DHT22;2702;51.014;7.170;2022-07-06T03:13:52;12.30;99.90
5358;DHT22;2702;51.014;7.170;2022-07-06T03:16:18;12.40;99.90
5358;DHT22;2702;51.014;7.170;2022-07-06T03:18:44;12.30;99.90
5358;DHT22;2702;51.014;7.170;2022-07-06T03:21:10;12.30;99.90
5358;DHT22;2702;51.014;7.170;2022-07-06T03:23:35;12.40;99.90
5358;DHT22;2702;51.014;7.170;2022-07-06T03:26:02;12.40;99.90
5358;DHT22;2702;51.014;7.170;2022-07-06T03:28:27;12.50;99.90
5358;DHT22;2702;51.014;7.170;2022-07-06T03:30:54;12.60;99.90
5358;DHT22;2702;51.014;7.170;2022-07-06T03:33:20;12.60;99.90
5358;DHT22;2702;51.014;7.170;2022-07-06T03:35:46;12.50;99.90
5358;DHT22;2702;51.014;7.170;2022-07-06T03:38:11;12.50;99.90
5358;DHT22;2702;51.014;7.170;2022-07-06T03:40:37;12.50;99.90
5358;DHT22;2702;51.014;7.170;2022-07-06T03:43:03;12.50;99.90
5358;DHT22;2702;51.014;7.170;2022-07-06T03:45:29;12.50;99.90
5358;DHT22;2702;51.014;7.170;2022-07-06T03:47:56;12.50;99.90
5358;DHT22;2702;51.014;7.170;2022-07-06T03:50:22;12.50;99.90
5358;DHT22;2702;51.014;7.170;2022-07-06T03:52:48;12.60;99.90
5358;DHT22;2702;51.014;7.170;2022-07-06T03:55:13;12.50;99.90
5358;DHT22;2702;51.014;7.170;2022-07-06T03:57:42;12.60;99.90
5358;DHT22;2702;51.014;7.170;2022-07-06T04:00:09;12.50;99.90
5358;DHT22;2702;51.014;7.170;2022-07-06T04:02:35;12.60;99.90
5358;DHT22;2702;51.014;7.170;2022-07-06T04:05:03;12.60;99.90
5358;DHT22;2702;51.014;7.170;2022-07-06T04:07:32;12.70;99.90
5358;DHT22;2702;51.014;7.170;2022-07-06T04:09:58;12.80;99.90
5358;DHT22;2702;51.014;7.170;2022-07-06T04:12:24;12.70;99.90
5358;DHT22;2702;51.014;7.170;2022-07-06T04:14:50;12.70;99.90
5358;DHT22;2702;51.014;7.170;2022-07-06T04:17:16;12.70;99.90
5358;DHT22;2702;51.014;7.170;2022-07-06T04:20:00;12.80;99.90
5358;DHT22;2702;51.014;7.170;2022-07-06T04:22:26;12.70;99.90
5358;DHT22;2702;51.014;7.170;2022-07-06T04:24:52;12.60;99.90
5358;DHT22;2702;51.014;7.170;2022-07-06T04:27:18;12.40;99.90
5358;DHT22;2702;51.014;7.170;2022-07-06T04:29:43;12.40;99.90
5358;DHT22;2702;51.014;7.170;2022-07-06T04:32:09;12.50;99.90
5358;DHT22;2702;51.014;7.170;2022-07-06T04:34:35;12.50;99.90
5358;DHT22;2702;51.014;7.170;2022-07-06T04:37:01;12.40;99.90
5358;DHT22;2702;51.014;7.170;2022-07-06T04:39:27;12.40;99.90
5358;DHT22;2702;51.014;7.170;2022-07-06T04:41:56;12.30;99.90
5358;DHT22;2702;51.014;7.170;2022-07-06T04:44:22;12.40;99.90
5358;DHT22;2702;51.014;7.170;2022-07-06T04:46:48;12.50;99.90
5358;DHT22;2702;51.014;7.170;2022-07-06T04:49:13;12.60;99.90
5358;DHT22;2702;51.014;7.170;2022-07-06T04:51:39;12.50;99.90
5358;DHT22;2702;51.014;7.170;2022-07-06T04:54:05;12.60;99.90
5358;DHT22;2702;51.014;7.170;2022-07-06T04:56:34;12.60;99.90
5358;DHT22;2702;51.014;7.170;2022-07-06T04:59:00;12.70;99.90
5358;DHT22;2702;51.014;7.170;2022-07-06T05:01:25;12.80;99.90
5358;DHT22;2702;51.014;7.170;2022-07-06T05:03:51;12.80;99.90
5358;DHT22;2702;51.014;7.170;2022-07-06T05:06:17;12.80;99.90
5358;DHT22;2702;51.014;7.170;2022-07-06T05:08:45;12.80;99.90
5358;DHT22;2702;51.014;7.170;2022-07-06T05:11:11;12.80;99.90
5358;DHT22;2702;51.014;7.170;2022-07-06T05:13:37;12.80;99.90
5358;DHT22;2702;51.014;7.170;2022-07-06T05:16:03;12.80;99.90
5358;DHT22;2702;51.014;7.170;2022-07-06T05:18:29;12.80;99.90
5358;DHT22;2702;51.014;7.170;2022-07-06T05:20:55;12.90;99.90
5358;DHT22;2702;51.014;7.170;2022-07-06T05:23:21;13.00;99.90
5358;DHT22;2702;51.014;7.170;2022-07-06T05:25:47;13.00;99.90
5358;DHT22;2702;51.014;7.170;2022-07-06T05:28:13;13.00;99.90
5358;DHT22;2702;51.014;7.170;2022-07-06T05:30:39;13.10;99.90
5358;DHT22;2702;51.014;7.170;2022-07-06T05:33:05;13.20;99.90
5358;DHT22;2702;51.014;7.170;2022-07-06T05:35:31;13.30;99.90
5358;DHT22;2702;51.014;7.170;2022-07-06T05:37:57;13.30;99.90
5358;DHT22;2702;51.014;7.170;2022-07-06T05:40:23;13.30;99.90
5358;DHT22;2702;51.014;7.170;2022-07-06T05:42:49;13.20;99.90
5358;DHT22;2702;51.014;7.170;2022-07-06T05:45:14;13.30;99.90
5358;DHT22;2702;51.014;7.170;2022-07-06T05:47:40;13.30;99.90
5358;DHT22;2702;51.014;7.170;2022-07-06T05:50:24;13.30;99.90
5358;DHT22;2702;51.014;7.170;2022-07-06T05:53:04;13.40;99.90
5358;DHT22;2702;51.014;7.170;2022-07-06T05:55:31;13.40;99.90
5358;DHT22;2702;51.014;7.170;2022-07-06T05:57:57;13.40;99.90
5358;DHT22;2702;51.014;7.170;2022-07-06T06:00:24;13.40;99.90
5358;DHT22;2702;51.014;7.170;2022-07-06T06:02:52;13.50;99.90
5358;DHT22;2702;51.014;7.170;2022-07-06T06:05:19;13.50;99.90
5358;DHT22;2702;51.014;7.170;2022-07-06T06:07:45;13.50;99.90
5358;DHT22;2702;51.014;7.170;2022-07-06T06:10:17;13.40;99.90
5358;DHT22;2702;51.014;7.170;2022-07-06T06:12:44;13.40;99.90
5358;DHT22;2702;51.014;7.170;2022-07-06T06:15:11;13.40;99.90
5358;DHT22;2702;51.014;7.170;2022-07-06T06:17:38;13.20;99.90
5358;DHT22;2702;51.014;7.170;2022-07-06T06:20:09;13.30;99.90
5358;DHT22;2702;51.014;7.170;2022-07-06T06:22:48;13.50;99.90
5358;DHT22;2702;51.014;7.170;2022-07-06T06:25:16;13.70;99.90
5358;DHT22;2702;51.014;7.170;2022-07-06T06:27:42;13.90;99.90
5358;DHT22;2702;51.014;7.170;2022-07-06T06:30:09;13.90;99.90
5358;DHT22;2702;51.014;7.170;2022-07-06T06:32:35;14.10;99.90
5358;DHT22;2702;51.014;7.170;2022-07-06T06:35:01;14.20;99.90
5358;DHT22;2702;51.014;7.170;2022-07-06T06:37:27;14.30;99.90
5358;DHT22;2702;51.014;7.170;2022-07-06T06:39:53;14.40;99.90
5358;DHT22;2702;51.014;7.170;2022-07-06T06:42:19;14.50;99.90
5358;DHT22;2702;51.014;7.170;2022-07-06T06:44:45;14.70;99.90
5358;DHT22;2702;51.014;7.170;2022-07-06T06:47:10;14.80;99.90
5358;DHT22;2702;51.014;7.170;2022-07-06T06:49:36;15.00;99.90
5358;DHT22;2702;51.014;7.170;2022-07-06T06:52:02;15.00;99.90
5358;DHT22;2702;51.014;7.170;2022-07-06T06:54:28;14.80;99.90
5358;DHT22;2702;51.014;7.170;2022-07-06T06:56:54;14.80;99.90
5358;DHT22;2702;51.014;7.170;2022-07-06T06:59:20;14.70;99.90
5358;DHT22;2702;51.014;7.170;2022-07-06T07:01:46;14.90;99.90
5358;DHT22;2702;51.014;7.170;2022-07-06T07:04:12;15.00;99.90
5358;DHT22;2702;51.014;7.170;2022-07-06T07:06:41;15.10;99.90
5358;DHT22;2702;51.014;7.170;2022-07-06T07:09:06;15.10;99.90
5358;DHT22;2702;51.014;7.170;2022-07-06T07:11:33;15.10;99.90
5358;DHT22;2702;51.014;7.170;2022-07-06T07:13:58;15.20;99.90
5358;DHT22;2702;51.014;7.170;2022-07-06T07:16:26;15.00;99.90
5358;DHT22;2702;51.014;7.170;2022-07-06T07:18:52;15.10;99.90
5358;DHT22;2702;51.014;7.170;2022-07-06T07:21:18;15.10;99.90
5358;DHT22;2702;51.014;7.170;2022-07-06T07:23:44;15.10;99.90
5358;DHT22;2702;51.014;7.170;2022-07-06T07:26:10;15.30;99.90
5358;DHT22;2702;51.014;7.170;2022-07-06T07:28:36;15.40;99.90
5358;DHT22;2702;51.014;7.170;2022-07-06T07:31:03;15.40;99.90
5358;DHT22;2702;51.014;7.170;2022-07-06T07:33:29;15.40;99.90
5358;DHT22;2702;51.014;7.170;2022-07-06T07:35:55;15.70;99.90
5358;DHT22;2702;51.014;7.170;2022-07-06T07:38:21;16.10;99.90
5358;DHT22;2702;51.014;7.170;2022-07-06T07:40:47;16.20;99.90
5358;DHT22;2702;51.014;7.170;2022-07-06T07:43:13;16.20;99.90
5358;DHT22;2702;51.014;7.170;2022-07-06T07:45:39;16.50;99.90
5358;DHT22;2702;51.014;7.170;2022-07-06T07:48:05;16.40;99.90
5358;DHT22;2702;51.014;7.170;2022-07-06T07:50:32;16.30;99.90
5358;DHT22;2702;51.014;7.170;2022-07-06T07:52:57;16.20;99.90
5358;DHT22;2702;51.014;7.170;2022-07-06T07:55:23;16.30;99.90
5358;DHT22;2702;51.014;7.170;2022-07-06T07:57:49;16.30;99.90
5358;DHT22;2702;51.014;7.170;2022-07-06T08:00:15;16.20;99.90
5358;DHT22;2702;51.014;7.170;2022-07-06T08:02:41;16.40;99.90
5358;DHT22;2702;51.014;7.170;2022-07-06T08:05:07;16.40;99.90
5358;DHT22;2702;51.014;7.170;2022-07-06T08:07:33;16.40;99.90
5358;DHT22;2702;51.014;7.170;2022-07-06T08:09:59;16.30;99.90
5358;DHT22;2702;51.014;7.170;2022-07-06T08:12:25;16.10;99.90
5358;DHT22;2702;51.014;7.170;2022-07-06T08:14:51;16.10;99.90
5358;DHT22;2702;51.014;7.170;2022-07-06T08:17:17;15.80;99.90
5358;DHT22;2702;51.014;7.170;2022-07-06T08:19:43;15.70;99.90
5358;DHT22;2702;51.014;7.170;2022-07-06T08:22:09;15.70;99.90
5358;DHT22;2702;51.014;7.170;2022-07-06T08:24:35;15.70;99.90
5358;DHT22;2702;51.014;7.170;2022-07-06T08:27:01;15.90;99.90
5358;DHT22;2702;51.014;7.170;2022-07-06T08:29:32;16.20;99.90
5358;DHT22;2702;51.014;7.170;2022-07-06T08:31:58;16.40;99.90
5358;DHT22;2702;51.014;7.170;2022-07-06T08:34:24;16.70;99.90
5358;DHT22;2702;51.014;7.170;2022-07-06T08:36:50;17.00;99.90
5358;DHT22;2702;51.014;7.170;2022-07-06T08:39:16;17.20;99.90
5358;DHT22;2702;51.014;7.170;2022-07-06T08:41:44;17.00;99.90
5358;DHT22;2702;51.014;7.170;2022-07-06T08:44:14;17.00;99.90
5358;DHT22;2702;51.014;7.170;2022-07-06T08:46:41;17.10;99.90
5358;DHT22;2702;51.014;7.170;2022-07-06T08:49:08;17.00;99.90
5358;DHT22;2702;51.014;7.170;2022-07-06T08:51:37;16.60;99.90
5358;DHT22;2702;51.014;7.170;2022-07-06T08:54:04;16.70;99.90
5358;DHT22;2702;51.014;7.170;2022-07-06T08:56:33;16.60;99.90
5358;DHT22;2702;51.014;7.170;2022-07-06T08:58:59;16.80;99.90
5358;DHT22;2702;51.014;7.170;2022-07-06T09:01:26;16.90;99.90
5358;DHT22;2702;51.014;7.170;2022-07-06T09:03:54;16.60;99.90
5358;DHT22;2702;51.014;7.170;2022-07-06T09:06:25;16.80;99.90
5358;DHT22;2702;51.014;7.170;2022-07-06T09:08:54;16.80;99.90
5358;DHT22;2702;51.014;7.170;2022-07-06T09:11:25;16.80;99.90
5358;DHT22;2702;51.014;7.170;2022-07-06T09:13:54;16.80;99.90
5358;DHT22;2702;51.014;7.170;2022-07-06T09:16:26;17.00;99.90
5358;DHT22;2702;51.014;7.170;2022-07-06T09:18:53;17.30;99.90
5358;DHT22;2702;51.014;7.170;2022-07-06T09:21:30;17.80;99.90
5358;DHT22;2702;51.014;7.170;2022-07-06T09:23:59;18.10;99.90
5358;DHT22;2702;51.014;7.170;2022-07-06T09:26:26;18.00;99.90
5358;DHT22;2702;51.014;7.170;2022-07-06T09:28:55;18.20;99.90
5358;DHT22;2702;51.014;7.170;2022-07-06T09:31:22;18.40;99.90
5358;DHT22;2702;51.014;7.170;2022-07-06T09:34:01;18.60;99.90
5358;DHT22;2702;51.014;7.170;2022-07-06T09:36:39;18.90;99.90
5358;DHT22;2702;51.014;7.170;2022-07-06T09:39:26;18.90;99.90
5358;DHT22;2702;51.014;7.170;2022-07-06T09:41:57;19.20;99.90
5358;DHT22;2702;51.014;7.170;2022-07-06T09:44:38;18.90;99.90
5358;DHT22;2702;51.014;7.170;2022-07-06T09:47:14;18.70;99.90
5358;DHT22;2702;51.014;7.170;2022-07-06T09:49:40;18.30;99.90
5358;DHT22;2702;51.014;7.170;2022-07-06T09:52:08;18.50;99.90
5358;DHT22;2702;51.014;7.170;2022-07-06T09:54:35;18.80;99.90
5358;DHT22;2702;51.014;7.170;2022-07-06T09:57:03;19.00;99.90
5358;DHT22;2702;51.014;7.170;2022-07-06T09:59:30;19.00;99.90
5358;DHT22;2702;51.014;7.170;2022-07-06T10:02:03;19.40;99.90
5358;DHT22;2702;51.014;7.170;2022-07-06T10:04:30;19.70;99.90
5358;DHT22;2702;51.014;7.170;2022-07-06T10:06:57;20.00;99.90
5358;DHT22;2702;51.014;7.170;2022-07-06T10:09:26;19.90;99.90
5358;DHT22;2702;51.014;7.170;2022-07-06T10:11:57;20.10;99.90
5358;DHT22;2702;51.014;7.170;2022-07-06T10:14:28;20.10;99.90
5358;DHT22;2702;51.014;7.170;2022-07-06T10:16:59;20.40;99.90
5358;DHT22;2702;51.014;7.170;2022-07-06T10:19:27;20.50;99.90
5358;DHT22;2702;51.014;7.170;2022-07-06T10:21:56;20.10;99.90
5358;DHT22;2702;51.014;7.170;2022-07-06T10:24:22;19.90;99.90
5358;DHT22;2702;51.014;7.170;2022-07-06T10:26:48;19.80;99.90
5358;DHT22;2702;51.014;7.170;2022-07-06T10:29:18;20.00;99.90
5358;DHT22;2702;51.014;7.170;2022-07-06T10:31:47;20.00;99.90
5358;DHT22;2702;51.014;7.170;2022-07-06T10:34:19;20.10;99.90
5358;DHT22;2702;51.014;7.170;2022-07-06T10:36:50;19.90;99.90
5358;DHT22;2702;51.014;7.170;2022-07-06T10:39:16;19.70;99.90
5358;DHT22;2702;51.014;7.170;2022-07-06T10:42:55;19.70;99.90
5358;DHT22;2702;51.014;7.170;2022-07-06T10:50:45;19.90;99.90
5358;DHT22;2702;51.014;7.170;2022-07-06T10:53:14;19.90;99.90
5358;DHT22;2702;51.014;7.170;2022-07-06T10:55:44;19.90;99.90
5358;DHT22;2702;51.014;7.170;2022-07-06T10:58:10;19.70;99.90
5358;DHT22;2702;51.014;7.170;2022-07-06T11:00:56;20.10;99.90
5358;DHT22;2702;51.014;7.170;2022-07-06T11:06:23;20.00;99.90
5358;DHT22;2702;51.014;7.170;2022-07-06T11:09:03;20.50;99.90
5358;DHT22;2702;51.014;7.170;2022-07-06T11:14:00;21.10;99.90
5358;DHT22;2702;51.014;7.170;2022-07-06T11:16:30;21.30;99.90
5358;DHT22;2702;51.014;7.170;2022-07-06T11:19:09;21.20;99.90
5358;DHT22;2702;51.014;7.170;2022-07-06T11:21:56;21.20;99.90
5358;DHT22;2702;51.014;7.170;2022-07-06T11:24:30;21.00;99.90
5358;DHT22;2702;51.014;7.170;2022-07-06T11:26:57;20.90;99.90
5358;DHT22;2702;51.014;7.170;2022-07-06T11:29:25;21.30;99.90
5358;DHT22;2702;51.014;7.170;2022-07-06T11:31:57;21.30;99.90
5358;DHT22;2702;51.014;7.170;2022-07-06T11:34:25;21.30;99.90
5358;DHT22;2702;51.014;7.170;2022-07-06T11:37:00;20.90;99.90
5358;DHT22;2702;51.014;7.170;2022-07-06T11:39:31;20.70;99.90
5358;DHT22;2702;51.014;7.170;2022-07-06T11:41:57;20.70;99.90
5358;DHT22;2702;51.014;7.170;2022-07-06T11:44:24;20.80;99.90
5358;DHT22;2702;51.014;7.170;2022-07-06T11:46:50;21.00;99.90
5358;DHT22;2702;51.014;7.170;2022-07-06T11:49:17;21.40;99.90
5358;DHT22;2702;51.014;7.170;2022-07-06T11:51:45;21.30;99.90
5358;DHT22;2702;51.014;7.170;2022-07-06T11:54:16;21.50;99.90
5358;DHT22;2702;51.014;7.170;2022-07-06T11:56:48;21.50;99.90
5358;DHT22;2702;51.014;7.170;2022-07-06T11:59:19;21.30;99.90
5358;DHT22;2702;51.014;7.170;2022-07-06T12:01:45;21.70;99.90
5358;DHT22;2702;51.014;7.170;2022-07-06T12:04:11;21.80;99.90
5358;DHT22;2702;51.014;7.170;2022-07-06T12:06:37;21.90;99.90
5358;DHT22;2702;51.014;7.170;2022-07-06T12:09:03;22.00;99.90
5358;DHT22;2702;51.014;7.170;2022-07-06T12:11:34;21.60;99.90
5358;DHT22;2702;51.014;7.170;2022-07-06T12:14:03;21.10;99.90
5358;DHT22;2702;51.014;7.170;2022-07-06T12:16:38;20.70;99.90
5358;DHT22;2702;51.014;7.170;2022-07-06T12:19:05;20.50;99.90
5358;DHT22;2702;51.014;7.170;2022-07-06T12:21:34;20.60;99.90
5358;DHT22;2702;51.014;7.170;2022-07-06T12:24:00;20.70;99.90
5358;DHT22;2702;51.014;7.170;2022-07-06T12:26:28;20.90;99.90
5358;DHT22;2702;51.014;7.170;2022-07-06T12:29:09;21.00;99.90
5358;DHT22;2702;51.014;7.170;2022-07-06T12:34:11;21.50;99.90
5358;DHT22;2702;51.014;7.170;2022-07-06T12:36:50;22.00;99.90
5358;DHT22;2702;51.014;7.170;2022-07-06T12:39:18;22.30;99.90
5358;DHT22;2702;51.014;7.170;2022-07-06T12:44:17;22.20;99.90
5358;DHT22;2702;51.014;7.170;2022-07-06T12:46:44;21.50;99.90
5358;DHT22;2702;51.014;7.170;2022-07-06T12:49:23;21.40;99.90
5358;DHT22;2702;51.014;7.170;2022-07-06T12:51:50;21.40;99.90
5358;DHT22;2702;51.014;7.170;2022-07-06T12:54:17;21.50;99.90
5358;DHT22;2702;51.014;7.170;2022-07-06T12:59:25;21.40;99.90
5358;DHT22;2702;51.014;7.170;2022-07-06T13:01:53;21.40;99.90
5358;DHT22;2702;51.014;7.170;2022-07-06T13:04:26;21.60;99.90
5358;DHT22;2702;51.014;7.170;2022-07-06T13:06:53;21.80;99.90
5358;DHT22;2702;51.014;7.170;2022-07-06T13:09:20;22.10;99.90
5358;DHT22;2702;51.014;7.170;2022-07-06T13:11:47;21.80;99.90
5358;DHT22;2702;51.014;7.170;2022-07-06T13:14:15;21.80;99.90
5358;DHT22;2702;51.014;7.170;2022-07-06T13:16:43;22.10;99.90
5358;DHT22;2702;51.014;7.170;2022-07-06T13:19:09;22.50;99.90
5358;DHT22;2702;51.014;7.170;2022-07-06T13:21:35;22.40;99.90
5358;DHT22;2702;51.014;7.170;2022-07-06T13:24:02;22.30;99.90
5358;DHT22;2702;51.014;7.170;2022-07-06T13:26:31;21.90;99.90
5358;DHT22;2702;51.014;7.170;2022-07-06T13:29:02;21.50;99.90
5358;DHT22;2702;51.014;7.170;2022-07-06T13:31:29;21.80;99.90
5358;DHT22;2702;51.014;7.170;2022-07-06T13:33:56;21.60;99.90
5358;DHT22;2702;51.014;7.170;2022-07-06T13:36:23;21.30;99.90
5358;DHT22;2702;51.014;7.170;2022-07-06T13:38:49;21.50;99.90
5358;DHT22;2702;51.014;7.170;2022-07-06T13:41:15;21.50;99.90
5358;DHT22;2702;51.014;7.170;2022-07-06T13:43:41;21.90;99.90
5358;DHT22;2702;51.014;7.170;2022-07-06T13:46:07;22.00;99.90
5358;DHT22;2702;51.014;7.170;2022-07-06T13:48:34;22.40;99.90
5358;DHT22;2702;51.014;7.170;2022-07-06T13:51:00;22.30;99.90
5358;DHT22;2702;51.014;7.170;2022-07-06T13:53:26;22.30;99.90
5358;DHT22;2702;51.014;7.170;2022-07-06T13:55:52;22.10;99.90
5358;DHT22;2702;51.014;7.170;2022-07-06T13:58:19;22.10;99.90
5358;DHT22;2702;51.014;7.170;2022-07-06T14:00:46;22.00;99.90
5358;DHT22;2702;51.014;7.170;2022-07-06T14:03:12;21.50;99.90
5358;DHT22;2702;51.014;7.170;2022-07-06T14:05:38;21.70;99.90
5358;DHT22;2702;51.014;7.170;2022-07-06T14:08:04;21.90;99.90
5358;DHT22;2702;51.014;7.170;2022-07-06T14:10:30;21.80;99.90
5358;DHT22;2702;51.014;7.170;2022-07-06T14:12:55;21.20;99.90
5358;DHT22;2702;51.014;7.170;2022-07-06T14:15:21;21.10;99.90
5358;DHT22;2702;51.014;7.170;2022-07-06T14:17:47;21.40;99.90
5358;DHT22;2702;51.014;7.170;2022-07-06T14:20:14;21.20;99.90
5358;DHT22;2702;51.014;7.170;2022-07-06T14:22:40;21.40;99.90
5358;DHT22;2702;51.014;7.170;2022-07-06T14:25:06;21.50;99.90
5358;DHT22;2702;51.014;7.170;2022-07-06T14:27:34;21.80;99.90
5358;DHT22;2702;51.014;7.170;2022-07-06T14:30:03;21.60;99.90
5358;DHT22;2702;51.014;7.170;2022-07-06T14:32:29;21.80;99.90
5358;DHT22;2702;51.014;7.170;2022-07-06T14:34:55;21.70;99.90
5358;DHT22;2702;51.014;7.170;2022-07-06T14:37:21;21.50;99.90
5358;DHT22;2702;51.014;7.170;2022-07-06T14:39:47;21.80;99.90
5358;DHT22;2702;51.014;7.170;2022-07-06T14:42:14;21.40;99.90
5358;DHT22;2702;51.014;7.170;2022-07-06T14:44:40;21.30;99.90
5358;DHT22;2702;51.014;7.170;2022-07-06T14:47:06;21.10;99.90
5358;DHT22;2702;51.014;7.170;2022-07-06T14:49:32;21.10;99.90
5358;DHT22;2702;51.014;7.170;2022-07-06T14:51:58;20.90;99.90
5358;DHT22;2702;51.014;7.170;2022-07-06T14:54:25;20.90;99.90
5358;DHT22;2702;51.014;7.170;2022-07-06T14:56:51;21.20;99.90
5358;DHT22;2702;51.014;7.170;2022-07-06T14:59:17;21.30;99.90
5358;DHT22;2702;51.014;7.170;2022-07-06T15:01:43;21.10;99.90
5358;DHT22;2702;51.014;7.170;2022-07-06T15:04:10;21.10;99.90
5358;DHT22;2702;51.014;7.170;2022-07-06T15:06:39;21.50;99.90
5358;DHT22;2702;51.014;7.170;2022-07-06T15:09:05;22.00;99.90
5358;DHT22;2702;51.014;7.170;2022-07-06T15:11:31;22.00;99.90
5358;DHT22;2702;51.014;7.170;2022-07-06T15:13:57;22.10;99.90
5358;DHT22;2702;51.014;7.170;2022-07-06T15:16:23;22.00;99.90
5358;DHT22;2702;51.014;7.170;2022-07-06T15:18:50;21.60;99.90
5358;DHT22;2702;51.014;7.170;2022-07-06T15:21:16;21.60;99.90
5358;DHT22;2702;51.014;7.170;2022-07-06T15:23:42;21.30;99.90
5358;DHT22;2702;51.014;7.170;2022-07-06T15:26:09;21.50;99.90
5358;DHT22;2702;51.014;7.170;2022-07-06T15:28:35;21.90;99.90
5358;DHT22;2702;51.014;7.170;2022-07-06T15:31:01;22.00;99.90
5358;DHT22;2702;51.014;7.170;2022-07-06T15:33:27;21.70;99.90
5358;DHT22;2702;51.014;7.170;2022-07-06T15:35:53;21.80;99.90
5358;DHT22;2702;51.014;7.170;2022-07-06T15:38:19;21.60;99.90
5358;DHT22;2702;51.014;7.170;2022-07-06T15:40:45;21.60;99.90
5358;DHT22;2702;51.014;7.170;2022-07-06T15:43:15;21.50;99.90
5358;DHT22;2702;51.014;7.170;2022-07-06T15:45:41;21.80;99.90
5358;DHT22;2702;51.014;7.170;2022-07-06T15:48:07;21.40;99.90
5358;DHT22;2702;51.014;7.170;2022-07-06T15:50:33;21.50;99.90
5358;DHT22;2702;51.014;7.170;2022-07-06T15:53:01;21.20;99.90
5358;DHT22;2702;51.014;7.170;2022-07-06T15:55:27;21.30;99.90
5358;DHT22;2702;51.014;7.170;2022-07-06T15:57:53;21.40;99.90
5358;DHT22;2702;51.014;7.170;2022-07-06T16:00:20;21.40;99.90
5358;DHT22;2702;51.014;7.170;2022-07-06T16:02:46;21.50;99.90
5358;DHT22;2702;51.014;7.170;2022-07-06T16:05:12;21.60;99.90
5358;DHT22;2702;51.014;7.170;2022-07-06T16:07:38;21.90;99.90
5358;DHT22;2702;51.014;7.170;2022-07-06T16:10:04;22.00;99.90
5358;DHT22;2702;51.014;7.170;2022-07-06T16:12:30;21.80;99.90
5358;DHT22;2702;51.014;7.170;2022-07-06T16:14:56;22.10;99.90
5358;DHT22;2702;51.014;7.170;2022-07-06T16:17:22;22.10;99.90
5358;DHT22;2702;51.014;7.170;2022-07-06T16:19:47;22.10;99.90
5358;DHT22;2702;51.014;7.170;2022-07-06T16:22:13;22.40;99.90
5358;DHT22;2702;51.014;7.170;2022-07-06T16:24:39;21.90;99.90